sensor_id;sensor_type;location;lat;lon;timestamp;P1;durP1;ratioP1;P2;durP2;ratioP2
32505;SDS011;18955;51.224;8.482;2023-05-14T00:00:00;5.57;;;3.17;;
32505;SDS011;18955;51.224;8.482;2023-05-14T00:02:26;4.28;;;3.03;;
32505;SDS011;18955;51.224;8.482;2023-05-14T00:04:52;4.28;;;3.67;;
32505;SDS011;18955;51.224;8.482;2023-05-14T00:07:18;8.70;;;3.80;;
32505;SDS011;18955;51.224;8.482;2023-05-14T00:09:44;6.15;;;3.67;;
32505;SDS011;18955;51.224;8.482;2023-05-14T00:12:11;5.55;;;3.60;;
32505;SDS011;18955;51.224;8.482;2023-05-14T00:14:37;9.00;;;4.00;;
32505;SDS011;18955;51.224;8.482;2023-05-14T00:17:03;9.82;;;3.50;;
32505;SDS011;18955;51.224;8.482;2023-05-14T00:19:31;5.22;;;3.47;;
32505;SDS011;18955;51.224;8.482;2023-05-14T00:21:57;6.55;;;4.00;;
32505;SDS011;18955;51.224;8.482;2023-05-14T00:24:23;3.92;;;3.53;;
32505;SDS011;18955;51.224;8.482;2023-05-14T00:26:50;5.20;;;3.83;;
32505;SDS011;18955;51.224;8.482;2023-05-14T00:29:16;4.28;;;3.50;;
32505;SDS011;18955;51.224;8.482;2023-05-14T00:31:42;5.03;;;4.18;;
32505;SDS011;18955;51.224;8.482;2023-05-14T00:34:08;4.10;;;3.45;;
32505;SDS011;18955;51.224;8.482;2023-05-14T00:36:34;5.53;;;3.63;;
32505;SDS011;18955;51.224;8.482;2023-05-14T00:39:01;5.60;;;3.67;;
32505;SDS011;18955;51.224;8.482;2023-05-14T00:41:28;4.05;;;3.65;;
32505;SDS011;18955;51.224;8.482;2023-05-14T00:43:54;8.00;;;4.22;;
32505;SDS011;18955;51.224;8.482;2023-05-14T00:46:20;8.55;;;3.80;;
32505;SDS011;18955;51.224;8.482;2023-05-14T00:48:47;8.27;;;4.22;;
32505;SDS011;18955;51.224;8.482;2023-05-14T00:51:13;4.88;;;3.88;;
32505;SDS011;18955;51.224;8.482;2023-05-14T00:53:40;11.30;;;3.90;;
32505;SDS011;18955;51.224;8.482;2023-05-14T00:56:06;5.90;;;4.25;;
32505;SDS011;18955;51.224;8.482;2023-05-14T00:58:34;4.20;;;3.80;;
32505;SDS011;18955;51.224;8.482;2023-05-14T01:01:00;3.80;;;3.13;;
32505;SDS011;18955;51.224;8.482;2023-05-14T01:03:26;8.27;;;3.88;;
32505;SDS011;18955;51.224;8.482;2023-05-14T01:06:14;5.20;;;3.72;;
32505;SDS011;18955;51.224;8.482;2023-05-14T01:11:31;4.75;;;3.30;;
32505;SDS011;18955;51.224;8.482;2023-05-14T01:17:16;7.72;;;3.63;;
32505;SDS011;18955;51.224;8.482;2023-05-14T01:19:45;8.32;;;3.92;;
32505;SDS011;18955;51.224;8.482;2023-05-14T01:22:12;6.85;;;3.80;;
32505;SDS011;18955;51.224;8.482;2023-05-14T01:24:39;9.32;;;4.38;;
32505;SDS011;18955;51.224;8.482;2023-05-14T01:30:12;4.78;;;3.67;;
32505;SDS011;18955;51.224;8.482;2023-05-14T01:32:39;6.85;;;3.22;;
32505;SDS011;18955;51.224;8.482;2023-05-14T01:35:07;10.38;;;3.65;;
32505;SDS011;18955;51.224;8.482;2023-05-14T01:37:35;7.65;;;3.88;;
32505;SDS011;18955;51.224;8.482;2023-05-14T01:40:04;5.35;;;3.92;;
32505;SDS011;18955;51.224;8.482;2023-05-14T01:42:31;5.00;;;3.80;;
32505;SDS011;18955;51.224;8.482;2023-05-14T01:44:58;4.43;;;3.67;;
32505;SDS011;18955;51.224;8.482;2023-05-14T01:47:24;5.40;;;4.47;;
32505;SDS011;18955;51.224;8.482;2023-05-14T01:52:17;6.45;;;3.95;;
32505;SDS011;18955;51.224;8.482;2023-05-14T01:54:46;7.53;;;4.07;;
32505;SDS011;18955;51.224;8.482;2023-05-14T01:57:12;7.45;;;3.38;;
32505;SDS011;18955;51.224;8.482;2023-05-14T01:59:39;6.90;;;3.83;;
32505;SDS011;18955;51.224;8.482;2023-05-14T02:02:05;5.70;;;3.63;;
32505;SDS011;18955;51.224;8.482;2023-05-14T02:04:31;4.65;;;3.17;;
32505;SDS011;18955;51.224;8.482;2023-05-14T02:06:57;6.97;;;4.03;;
32505;SDS011;18955;51.224;8.482;2023-05-14T02:09:23;3.83;;;3.45;;
32505;SDS011;18955;51.224;8.482;2023-05-14T02:11:50;4.15;;;3.45;;
32505;SDS011;18955;51.224;8.482;2023-05-14T02:14:16;4.93;;;3.80;;
32505;SDS011;18955;51.224;8.482;2023-05-14T02:16:42;7.03;;;3.83;;
32505;SDS011;18955;51.224;8.482;2023-05-14T02:19:08;5.25;;;4.22;;
32505;SDS011;18955;51.224;8.482;2023-05-14T02:21:35;5.47;;;4.18;;
32505;SDS011;18955;51.224;8.482;2023-05-14T02:24:01;7.45;;;3.88;;
32505;SDS011;18955;51.224;8.482;2023-05-14T02:26:28;5.32;;;3.60;;
32505;SDS011;18955;51.224;8.482;2023-05-14T02:28:54;3.20;;;2.90;;
32505;SDS011;18955;51.224;8.482;2023-05-14T02:31:21;6.65;;;4.38;;
32505;SDS011;18955;51.224;8.482;2023-05-14T02:33:47;5.90;;;3.33;;
32505;SDS011;18955;51.224;8.482;2023-05-14T02:36:13;6.78;;;3.80;;
32505;SDS011;18955;51.224;8.482;2023-05-14T02:38:40;4.65;;;3.38;;
32505;SDS011;18955;51.224;8.482;2023-05-14T02:41:06;4.32;;;3.90;;
32505;SDS011;18955;51.224;8.482;2023-05-14T02:43:32;8.52;;;3.55;;
32505;SDS011;18955;51.224;8.482;2023-05-14T02:45:59;7.18;;;4.50;;
32505;SDS011;18955;51.224;8.482;2023-05-14T02:48:25;9.27;;;3.40;;
32505;SDS011;18955;51.224;8.482;2023-05-14T02:50:51;5.15;;;3.70;;
32505;SDS011;18955;51.224;8.482;2023-05-14T02:53:17;7.15;;;4.25;;
32505;SDS011;18955;51.224;8.482;2023-05-14T02:55:43;5.05;;;3.40;;
32505;SDS011;18955;51.224;8.482;2023-05-14T02:58:10;7.55;;;3.05;;
32505;SDS011;18955;51.224;8.482;2023-05-14T03:00:36;8.05;;;4.30;;
32505;SDS011;18955;51.224;8.482;2023-05-14T03:03:02;4.05;;;3.58;;
32505;SDS011;18955;51.224;8.482;2023-05-14T03:05:29;8.20;;;4.05;;
32505;SDS011;18955;51.224;8.482;2023-05-14T03:07:55;4.25;;;3.35;;
32505;SDS011;18955;51.224;8.482;2023-05-14T03:10:21;7.82;;;4.10;;
32505;SDS011;18955;51.224;8.482;2023-05-14T03:12:47;6.78;;;4.03;;
32505;SDS011;18955;51.224;8.482;2023-05-14T03:15:14;4.40;;;3.67;;
32505;SDS011;18955;51.224;8.482;2023-05-14T03:17:40;6.97;;;3.97;;
32505;SDS011;18955;51.224;8.482;2023-05-14T03:20:06;6.70;;;4.05;;
32505;SDS011;18955;51.224;8.482;2023-05-14T03:22:34;4.20;;;3.70;;
32505;SDS011;18955;51.224;8.482;2023-05-14T03:25:01;5.28;;;4.70;;
32505;SDS011;18955;51.224;8.482;2023-05-14T03:27:27;5.13;;;4.57;;
32505;SDS011;18955;51.224;8.482;2023-05-14T03:29:53;7.47;;;3.53;;
32505;SDS011;18955;51.224;8.482;2023-05-14T03:32:20;8.88;;;4.55;;
32505;SDS011;18955;51.224;8.482;2023-05-14T03:34:46;6.72;;;4.10;;
32505;SDS011;18955;51.224;8.482;2023-05-14T03:37:12;3.88;;;3.20;;
32505;SDS011;18955;51.224;8.482;2023-05-14T03:39:38;3.55;;;3.17;;
32505;SDS011;18955;51.224;8.482;2023-05-14T03:42:05;4.70;;;3.50;;
32505;SDS011;18955;51.224;8.482;2023-05-14T03:44:31;7.50;;;4.10;;
32505;SDS011;18955;51.224;8.482;2023-05-14T03:46:57;5.13;;;3.08;;
32505;SDS011;18955;51.224;8.482;2023-05-14T03:49:24;8.82;;;3.95;;
32505;SDS011;18955;51.224;8.482;2023-05-14T03:51:50;5.18;;;4.07;;
32505;SDS011;18955;51.224;8.482;2023-05-14T03:54:17;6.60;;;4.22;;
32505;SDS011;18955;51.224;8.482;2023-05-14T03:56:43;4.57;;;4.18;;
32505;SDS011;18955;51.224;8.482;2023-05-14T03:59:10;4.93;;;3.95;;
32505;SDS011;18955;51.224;8.482;2023-05-14T04:01:36;5.28;;;3.72;;
32505;SDS011;18955;51.224;8.482;2023-05-14T04:04:02;5.00;;;3.17;;
32505;SDS011;18955;51.224;8.482;2023-05-14T04:06:29;4.95;;;4.10;;
32505;SDS011;18955;51.224;8.482;2023-05-14T04:08:55;4.43;;;3.72;;
32505;SDS011;18955;51.224;8.482;2023-05-14T04:11:21;6.68;;;4.53;;
32505;SDS011;18955;51.224;8.482;2023-05-14T04:13:48;5.53;;;3.92;;
32505;SDS011;18955;51.224;8.482;2023-05-14T04:16:14;5.07;;;3.75;;
32505;SDS011;18955;51.224;8.482;2023-05-14T04:18:41;6.97;;;4.40;;
32505;SDS011;18955;51.224;8.482;2023-05-14T04:21:07;5.20;;;4.20;;
32505;SDS011;18955;51.224;8.482;2023-05-14T04:23:33;5.20;;;4.38;;
32505;SDS011;18955;51.224;8.482;2023-05-14T04:25:59;5.22;;;4.30;;
32505;SDS011;18955;51.224;8.482;2023-05-14T04:28:25;5.43;;;4.28;;
32505;SDS011;18955;51.224;8.482;2023-05-14T04:30:52;5.07;;;3.97;;
32505;SDS011;18955;51.224;8.482;2023-05-14T04:33:18;5.93;;;4.25;;
32505;SDS011;18955;51.224;8.482;2023-05-14T04:35:44;5.25;;;4.47;;
32505;SDS011;18955;51.224;8.482;2023-05-14T04:38:10;6.18;;;4.00;;
32505;SDS011;18955;51.224;8.482;2023-05-14T04:40:38;8.13;;;4.35;;
32505;SDS011;18955;51.224;8.482;2023-05-14T04:43:06;6.25;;;4.55;;
32505;SDS011;18955;51.224;8.482;2023-05-14T04:45:32;6.57;;;4.40;;
32505;SDS011;18955;51.224;8.482;2023-05-14T04:47:58;3.58;;;3.28;;
32505;SDS011;18955;51.224;8.482;2023-05-14T04:50:25;5.25;;;4.60;;
32505;SDS011;18955;51.224;8.482;2023-05-14T04:52:51;11.02;;;4.70;;
32505;SDS011;18955;51.224;8.482;2023-05-14T04:55:17;6.80;;;4.65;;
32505;SDS011;18955;51.224;8.482;2023-05-14T04:57:43;8.02;;;4.40;;
32505;SDS011;18955;51.224;8.482;2023-05-14T05:00:10;5.07;;;4.57;;
32505;SDS011;18955;51.224;8.482;2023-05-14T05:05:02;7.43;;;4.60;;
32505;SDS011;18955;51.224;8.482;2023-05-14T05:07:29;4.88;;;4.38;;
32505;SDS011;18955;51.224;8.482;2023-05-14T05:09:55;6.07;;;4.38;;
32505;SDS011;18955;51.224;8.482;2023-05-14T05:12:21;6.00;;;4.68;;
32505;SDS011;18955;51.224;8.482;2023-05-14T05:14:48;6.72;;;5.13;;
32505;SDS011;18955;51.224;8.482;2023-05-14T05:17:14;7.57;;;5.00;;
32505;SDS011;18955;51.224;8.482;2023-05-14T05:19:40;4.13;;;3.53;;
32505;SDS011;18955;51.224;8.482;2023-05-14T05:22:06;5.45;;;4.03;;
32505;SDS011;18955;51.224;8.482;2023-05-14T05:24:32;8.70;;;5.25;;
32505;SDS011;18955;51.224;8.482;2023-05-14T05:26:58;4.68;;;3.65;;
32505;SDS011;18955;51.224;8.482;2023-05-14T05:29:25;10.25;;;4.90;;
32505;SDS011;18955;51.224;8.482;2023-05-14T05:31:51;5.05;;;3.97;;
32505;SDS011;18955;51.224;8.482;2023-05-14T05:34:17;12.35;;;4.90;;
32505;SDS011;18955;51.224;8.482;2023-05-14T05:36:44;6.25;;;5.65;;
32505;SDS011;18955;51.224;8.482;2023-05-14T05:39:10;9.23;;;5.30;;
32505;SDS011;18955;51.224;8.482;2023-05-14T05:41:37;7.85;;;5.35;;
32505;SDS011;18955;51.224;8.482;2023-05-14T05:44:03;7.47;;;5.82;;
32505;SDS011;18955;51.224;8.482;2023-05-14T05:46:30;6.82;;;5.72;;
32505;SDS011;18955;51.224;8.482;2023-05-14T05:48:56;4.95;;;4.55;;
32505;SDS011;18955;51.224;8.482;2023-05-14T05:51:22;8.40;;;6.00;;
32505;SDS011;18955;51.224;8.482;2023-05-14T05:53:48;8.73;;;5.68;;
32505;SDS011;18955;51.224;8.482;2023-05-14T05:56:14;7.80;;;4.38;;
32505;SDS011;18955;51.224;8.482;2023-05-14T05:58:41;7.65;;;5.97;;
32505;SDS011;18955;51.224;8.482;2023-05-14T06:01:07;9.27;;;5.80;;
32505;SDS011;18955;51.224;8.482;2023-05-14T06:03:33;4.97;;;4.15;;
32505;SDS011;18955;51.224;8.482;2023-05-14T06:06:00;6.30;;;5.28;;
32505;SDS011;18955;51.224;8.482;2023-05-14T06:08:26;7.07;;;6.38;;
32505;SDS011;18955;51.224;8.482;2023-05-14T06:10:52;4.57;;;4.15;;
32505;SDS011;18955;51.224;8.482;2023-05-14T06:13:18;9.75;;;7.22;;
32505;SDS011;18955;51.224;8.482;2023-05-14T06:15:44;6.00;;;5.30;;
32505;SDS011;18955;51.224;8.482;2023-05-14T06:18:11;7.20;;;6.47;;
32505;SDS011;18955;51.224;8.482;2023-05-14T06:20:37;7.38;;;5.95;;
32505;SDS011;18955;51.224;8.482;2023-05-14T06:23:04;7.50;;;6.80;;
32505;SDS011;18955;51.224;8.482;2023-05-14T06:25:30;6.72;;;5.60;;
32505;SDS011;18955;51.224;8.482;2023-05-14T06:27:56;8.85;;;7.63;;
32505;SDS011;18955;51.224;8.482;2023-05-14T06:30:22;7.85;;;5.18;;
32505;SDS011;18955;51.224;8.482;2023-05-14T06:32:49;8.13;;;6.93;;
32505;SDS011;18955;51.224;8.482;2023-05-14T06:35:16;8.00;;;7.00;;
32505;SDS011;18955;51.224;8.482;2023-05-14T06:37:44;7.10;;;6.32;;
32505;SDS011;18955;51.224;8.482;2023-05-14T06:40:10;7.53;;;6.75;;
32505;SDS011;18955;51.224;8.482;2023-05-14T06:42:40;7.18;;;5.97;;
32505;SDS011;18955;51.224;8.482;2023-05-14T06:45:07;7.05;;;6.10;;
32505;SDS011;18955;51.224;8.482;2023-05-14T06:47:33;6.63;;;5.93;;
32505;SDS011;18955;51.224;8.482;2023-05-14T06:49:59;6.72;;;5.72;;
32505;SDS011;18955;51.224;8.482;2023-05-14T06:54:52;6.00;;;5.15;;
32505;SDS011;18955;51.224;8.482;2023-05-14T06:57:18;5.28;;;4.18;;
32505;SDS011;18955;51.224;8.482;2023-05-14T06:59:45;8.65;;;5.10;;
32505;SDS011;18955;51.224;8.482;2023-05-14T07:02:11;6.03;;;4.50;;
32505;SDS011;18955;51.224;8.482;2023-05-14T07:04:38;6.60;;;5.38;;
32505;SDS011;18955;51.224;8.482;2023-05-14T07:07:04;6.65;;;4.57;;
32505;SDS011;18955;51.224;8.482;2023-05-14T07:09:30;7.25;;;4.93;;
32505;SDS011;18955;51.224;8.482;2023-05-14T07:11:56;5.40;;;3.30;;
32505;SDS011;18955;51.224;8.482;2023-05-14T07:14:23;5.25;;;3.45;;
32505;SDS011;18955;51.224;8.482;2023-05-14T07:16:49;5.20;;;3.80;;
32505;SDS011;18955;51.224;8.482;2023-05-14T07:19:15;3.65;;;3.20;;
32505;SDS011;18955;51.224;8.482;2023-05-14T07:21:41;5.97;;;4.15;;
32505;SDS011;18955;51.224;8.482;2023-05-14T07:24:08;8.45;;;3.33;;
32505;SDS011;18955;51.224;8.482;2023-05-14T07:26:34;2.97;;;2.45;;
32505;SDS011;18955;51.224;8.482;2023-05-14T07:29:00;3.80;;;3.25;;
32505;SDS011;18955;51.224;8.482;2023-05-14T07:31:26;6.60;;;4.00;;
32505;SDS011;18955;51.224;8.482;2023-05-14T07:33:53;3.97;;;3.30;;
32505;SDS011;18955;51.224;8.482;2023-05-14T07:36:19;5.72;;;3.92;;
32505;SDS011;18955;51.224;8.482;2023-05-14T07:38:45;4.35;;;3.03;;
32505;SDS011;18955;51.224;8.482;2023-05-14T07:41:11;3.47;;;3.17;;
32505;SDS011;18955;51.224;8.482;2023-05-14T07:43:38;3.63;;;3.30;;
32505;SDS011;18955;51.224;8.482;2023-05-14T07:48:31;3.40;;;3.10;;
32505;SDS011;18955;51.224;8.482;2023-05-14T07:50:57;4.72;;;3.30;;
32505;SDS011;18955;51.224;8.482;2023-05-14T07:53:23;4.22;;;3.28;;
32505;SDS011;18955;51.224;8.482;2023-05-14T07:55:50;3.22;;;2.85;;
32505;SDS011;18955;51.224;8.482;2023-05-14T07:58:17;4.30;;;3.10;;
32505;SDS011;18955;51.224;8.482;2023-05-14T08:00:43;4.82;;;2.67;;
32505;SDS011;18955;51.224;8.482;2023-05-14T08:03:09;4.20;;;3.03;;
32505;SDS011;18955;51.224;8.482;2023-05-14T08:05:36;3.38;;;2.83;;
32505;SDS011;18955;51.224;8.482;2023-05-14T08:08:02;3.15;;;2.65;;
32505;SDS011;18955;51.224;8.482;2023-05-14T08:10:28;3.28;;;2.50;;
32505;SDS011;18955;51.224;8.482;2023-05-14T08:12:55;5.65;;;2.83;;
32505;SDS011;18955;51.224;8.482;2023-05-14T08:15:21;3.95;;;2.70;;
32505;SDS011;18955;51.224;8.482;2023-05-14T08:17:48;3.88;;;2.60;;
32505;SDS011;18955;51.224;8.482;2023-05-14T08:20:14;4.68;;;3.20;;
32505;SDS011;18955;51.224;8.482;2023-05-14T08:22:40;2.97;;;2.47;;
32505;SDS011;18955;51.224;8.482;2023-05-14T08:25:07;4.95;;;2.85;;
32505;SDS011;18955;51.224;8.482;2023-05-14T08:27:33;4.28;;;2.90;;
32505;SDS011;18955;51.224;8.482;2023-05-14T08:29:59;5.25;;;2.28;;
32505;SDS011;18955;51.224;8.482;2023-05-14T08:32:25;2.25;;;2.05;;
32505;SDS011;18955;51.224;8.482;2023-05-14T08:34:52;4.95;;;2.55;;
32505;SDS011;18955;51.224;8.482;2023-05-14T08:37:18;3.58;;;2.78;;
32505;SDS011;18955;51.224;8.482;2023-05-14T08:39:44;4.55;;;2.42;;
32505;SDS011;18955;51.224;8.482;2023-05-14T08:42:11;4.45;;;2.50;;
32505;SDS011;18955;51.224;8.482;2023-05-14T08:44:39;4.22;;;2.95;;
32505;SDS011;18955;51.224;8.482;2023-05-14T08:47:13;6.82;;;2.78;;
32505;SDS011;18955;51.224;8.482;2023-05-14T08:49:42;3.15;;;2.80;;
32505;SDS011;18955;51.224;8.482;2023-05-14T08:52:12;4.25;;;2.92;;
32505;SDS011;18955;51.224;8.482;2023-05-14T08:54:40;3.30;;;3.00;;
32505;SDS011;18955;51.224;8.482;2023-05-14T08:57:08;3.78;;;2.80;;
32505;SDS011;18955;51.224;8.482;2023-05-14T08:59:35;4.97;;;2.88;;
32505;SDS011;18955;51.224;8.482;2023-05-14T09:06:56;3.78;;;2.47;;
32505;SDS011;18955;51.224;8.482;2023-05-14T09:09:26;2.42;;;2.00;;
32505;SDS011;18955;51.224;8.482;2023-05-14T09:14:19;3.70;;;1.92;;
32505;SDS011;18955;51.224;8.482;2023-05-14T09:16:47;2.17;;;1.75;;
32505;SDS011;18955;51.224;8.482;2023-05-14T09:19:14;2.78;;;1.95;;
32505;SDS011;18955;51.224;8.482;2023-05-14T09:21:44;3.33;;;2.20;;
32505;SDS011;18955;51.224;8.482;2023-05-14T09:24:23;2.72;;;2.00;;
32505;SDS011;18955;51.224;8.482;2023-05-14T09:26:52;2.95;;;2.13;;
32505;SDS011;18955;51.224;8.482;2023-05-14T09:29:19;2.10;;;1.90;;
32505;SDS011;18955;51.224;8.482;2023-05-14T09:31:46;3.47;;;1.90;;
32505;SDS011;18955;51.224;8.482;2023-05-14T09:34:28;2.55;;;2.17;;
32505;SDS011;18955;51.224;8.482;2023-05-14T09:36:59;2.30;;;2.10;;
32505;SDS011;18955;51.224;8.482;2023-05-14T09:39:27;2.25;;;2.03;;
32505;SDS011;18955;51.224;8.482;2023-05-14T09:41:54;2.47;;;1.92;;
32505;SDS011;18955;51.224;8.482;2023-05-14T09:44:21;2.00;;;1.80;;
32505;SDS011;18955;51.224;8.482;2023-05-14T09:46:48;7.18;;;1.90;;
32505;SDS011;18955;51.224;8.482;2023-05-14T09:49:15;2.45;;;2.10;;
32505;SDS011;18955;51.224;8.482;2023-05-14T09:51:41;2.00;;;1.80;;
32505;SDS011;18955;51.224;8.482;2023-05-14T09:54:08;3.85;;;1.85;;
32505;SDS011;18955;51.224;8.482;2023-05-14T09:56:34;2.47;;;2.00;;
32505;SDS011;18955;51.224;8.482;2023-05-14T09:59:02;3.00;;;2.10;;
32505;SDS011;18955;51.224;8.482;2023-05-14T10:01:29;2.85;;;2.20;;
32505;SDS011;18955;51.224;8.482;2023-05-14T10:03:57;3.35;;;2.17;;
32505;SDS011;18955;51.224;8.482;2023-05-14T10:06:27;2.20;;;2.03;;
32505;SDS011;18955;51.224;8.482;2023-05-14T10:09:02;6.05;;;2.30;;
32505;SDS011;18955;51.224;8.482;2023-05-14T10:11:31;1.90;;;1.67;;
32505;SDS011;18955;51.224;8.482;2023-05-14T10:16:46;4.10;;;2.53;;
32505;SDS011;18955;51.224;8.482;2023-05-14T10:19:15;2.13;;;1.95;;
32505;SDS011;18955;51.224;8.482;2023-05-14T10:21:44;4.22;;;2.30;;
32505;SDS011;18955;51.224;8.482;2023-05-14T10:24:12;2.67;;;2.03;;
32505;SDS011;18955;51.224;8.482;2023-05-14T10:26:39;2.97;;;2.08;;
32505;SDS011;18955;51.224;8.482;2023-05-14T10:29:08;4.53;;;2.30;;
32505;SDS011;18955;51.224;8.482;2023-05-14T10:31:48;2.83;;;1.80;;
32505;SDS011;18955;51.224;8.482;2023-05-14T10:37:03;2.67;;;2.08;;
32505;SDS011;18955;51.224;8.482;2023-05-14T10:42:16;4.00;;;1.88;;
32505;SDS011;18955;51.224;8.482;2023-05-14T10:45:04;3.15;;;2.10;;
32505;SDS011;18955;51.224;8.482;2023-05-14T10:47:33;2.15;;;1.60;;
32505;SDS011;18955;51.224;8.482;2023-05-14T10:50:02;2.53;;;1.90;;
32505;SDS011;18955;51.224;8.482;2023-05-14T10:52:30;2.20;;;1.60;;
32505;SDS011;18955;51.224;8.482;2023-05-14T10:54:58;1.88;;;1.77;;
32505;SDS011;18955;51.224;8.482;2023-05-14T10:57:27;2.13;;;1.80;;
32505;SDS011;18955;51.224;8.482;2023-05-14T10:59:56;2.35;;;1.80;;
32505;SDS011;18955;51.224;8.482;2023-05-14T11:05:07;6.50;;;2.28;;
32505;SDS011;18955;51.224;8.482;2023-05-14T11:10:06;5.32;;;1.80;;
32505;SDS011;18955;51.224;8.482;2023-05-14T11:12:40;2.03;;;1.77;;
32505;SDS011;18955;51.224;8.482;2023-05-14T11:15:18;2.00;;;1.70;;
32505;SDS011;18955;51.224;8.482;2023-05-14T11:17:49;1.95;;;1.85;;
32505;SDS011;18955;51.224;8.482;2023-05-14T11:20:16;3.55;;;1.60;;
32505;SDS011;18955;51.224;8.482;2023-05-14T11:22:44;2.10;;;1.60;;
32505;SDS011;18955;51.224;8.482;2023-05-14T11:25:11;2.13;;;1.70;;
32505;SDS011;18955;51.224;8.482;2023-05-14T11:27:43;3.03;;;1.70;;
32505;SDS011;18955;51.224;8.482;2023-05-14T11:30:15;2.45;;;1.67;;
32505;SDS011;18955;51.224;8.482;2023-05-14T11:32:43;6.30;;;4.07;;
32505;SDS011;18955;51.224;8.482;2023-05-14T11:35:11;4.40;;;2.10;;
32505;SDS011;18955;51.224;8.482;2023-05-14T11:37:38;5.53;;;2.20;;
32505;SDS011;18955;51.224;8.482;2023-05-14T11:40:06;3.80;;;2.05;;
32505;SDS011;18955;51.224;8.482;2023-05-14T11:42:36;2.92;;;2.20;;
32505;SDS011;18955;51.224;8.482;2023-05-14T11:45:03;2.53;;;1.88;;
32505;SDS011;18955;51.224;8.482;2023-05-14T11:47:30;2.53;;;1.77;;
32505;SDS011;18955;51.224;8.482;2023-05-14T11:49:57;2.85;;;1.92;;
32505;SDS011;18955;51.224;8.482;2023-05-14T11:52:24;3.30;;;1.92;;
32505;SDS011;18955;51.224;8.482;2023-05-14T11:54:50;2.13;;;1.70;;
32505;SDS011;18955;51.224;8.482;2023-05-14T11:57:19;1.85;;;1.42;;
32505;SDS011;18955;51.224;8.482;2023-05-14T11:59:54;1.70;;;1.50;;
32505;SDS011;18955;51.224;8.482;2023-05-14T12:02:25;3.65;;;2.38;;
32505;SDS011;18955;51.224;8.482;2023-05-14T12:04:55;2.35;;;1.98;;
32505;SDS011;18955;51.224;8.482;2023-05-14T12:07:22;2.92;;;2.10;;
32505;SDS011;18955;51.224;8.482;2023-05-14T12:09:48;1.92;;;1.60;;
32505;SDS011;18955;51.224;8.482;2023-05-14T12:12:19;3.03;;;2.33;;
32505;SDS011;18955;51.224;8.482;2023-05-14T12:14:46;2.60;;;2.00;;
32505;SDS011;18955;51.224;8.482;2023-05-14T12:19:41;2.65;;;1.98;;
32505;SDS011;18955;51.224;8.482;2023-05-14T12:22:09;3.00;;;2.20;;
32505;SDS011;18955;51.224;8.482;2023-05-14T12:24:36;2.75;;;2.15;;
32505;SDS011;18955;51.224;8.482;2023-05-14T12:27:03;3.20;;;2.20;;
32505;SDS011;18955;51.224;8.482;2023-05-14T12:29:34;4.45;;;2.20;;
32505;SDS011;18955;51.224;8.482;2023-05-14T12:32:02;2.28;;;2.08;;
32505;SDS011;18955;51.224;8.482;2023-05-14T12:34:34;7.40;;;2.28;;
32505;SDS011;18955;51.224;8.482;2023-05-14T12:37:00;2.08;;;1.90;;
32505;SDS011;18955;51.224;8.482;2023-05-14T12:39:27;3.97;;;2.10;;
32505;SDS011;18955;51.224;8.482;2023-05-14T12:41:53;2.55;;;2.10;;
32505;SDS011;18955;51.224;8.482;2023-05-14T12:44:19;2.50;;;2.10;;
32505;SDS011;18955;51.224;8.482;2023-05-14T12:46:47;2.20;;;2.00;;
32505;SDS011;18955;51.224;8.482;2023-05-14T12:49:13;2.45;;;1.80;;
32505;SDS011;18955;51.224;8.482;2023-05-14T12:51:39;3.10;;;1.40;;
32505;SDS011;18955;51.224;8.482;2023-05-14T12:54:05;1.85;;;1.67;;
32505;SDS011;18955;51.224;8.482;2023-05-14T12:56:31;3.30;;;1.63;;
32505;SDS011;18955;51.224;8.482;2023-05-14T12:58:58;3.78;;;2.03;;
32505;SDS011;18955;51.224;8.482;2023-05-14T13:01:24;2.65;;;1.48;;
32505;SDS011;18955;51.224;8.482;2023-05-14T13:03:50;2.33;;;1.75;;
32505;SDS011;18955;51.224;8.482;2023-05-14T13:06:16;4.38;;;1.80;;
32505;SDS011;18955;51.224;8.482;2023-05-14T13:08:43;3.80;;;2.13;;
32505;SDS011;18955;51.224;8.482;2023-05-14T13:11:09;2.88;;;1.83;;
32505;SDS011;18955;51.224;8.482;2023-05-14T13:13:35;2.03;;;1.80;;
32505;SDS011;18955;51.224;8.482;2023-05-14T13:16:01;4.68;;;1.75;;
32505;SDS011;18955;51.224;8.482;2023-05-14T13:20:54;3.40;;;1.80;;
32505;SDS011;18955;51.224;8.482;2023-05-14T13:23:20;2.28;;;2.08;;
32505;SDS011;18955;51.224;8.482;2023-05-14T13:25:47;3.08;;;2.05;;
32505;SDS011;18955;51.224;8.482;2023-05-14T13:28:13;1.75;;;1.65;;
32505;SDS011;18955;51.224;8.482;2023-05-14T13:30:39;2.47;;;1.60;;
32505;SDS011;18955;51.224;8.482;2023-05-14T13:33:05;2.13;;;1.63;;
32505;SDS011;18955;51.224;8.482;2023-05-14T13:35:32;2.22;;;1.90;;
32505;SDS011;18955;51.224;8.482;2023-05-14T13:37:59;2.58;;;1.75;;
32505;SDS011;18955;51.224;8.482;2023-05-14T13:40:25;1.52;;;1.42;;
32505;SDS011;18955;51.224;8.482;2023-05-14T13:42:51;6.72;;;2.30;;
32505;SDS011;18955;51.224;8.482;2023-05-14T13:45:18;1.85;;;1.67;;
32505;SDS011;18955;51.224;8.482;2023-05-14T13:47:44;2.35;;;1.90;;
32505;SDS011;18955;51.224;8.482;2023-05-14T13:50:10;2.03;;;1.90;;
32505;SDS011;18955;51.224;8.482;2023-05-14T13:52:37;1.58;;;1.30;;
32505;SDS011;18955;51.224;8.482;2023-05-14T13:55:03;3.25;;;1.90;;
32505;SDS011;18955;51.224;8.482;2023-05-14T13:57:30;2.00;;;1.80;;
32505;SDS011;18955;51.224;8.482;2023-05-14T13:59:56;2.50;;;1.60;;
32505;SDS011;18955;51.224;8.482;2023-05-14T14:02:22;2.53;;;1.75;;
32505;SDS011;18955;51.224;8.482;2023-05-14T14:04:49;1.88;;;1.52;;
32505;SDS011;18955;51.224;8.482;2023-05-14T14:07:15;1.48;;;1.38;;
32505;SDS011;18955;51.224;8.482;2023-05-14T14:09:41;2.75;;;1.75;;
32505;SDS011;18955;51.224;8.482;2023-05-14T14:12:07;1.67;;;1.58;;
32505;SDS011;18955;51.224;8.482;2023-05-14T14:14:34;2.58;;;1.75;;
32505;SDS011;18955;51.224;8.482;2023-05-14T14:17:00;1.52;;;1.42;;
32505;SDS011;18955;51.224;8.482;2023-05-14T14:19:26;2.22;;;1.60;;
32505;SDS011;18955;51.224;8.482;2023-05-14T14:21:52;2.05;;;1.80;;
32505;SDS011;18955;51.224;8.482;2023-05-14T14:24:19;4.88;;;1.40;;
32505;SDS011;18955;51.224;8.482;2023-05-14T14:26:45;1.88;;;1.67;;
32505;SDS011;18955;51.224;8.482;2023-05-14T14:29:11;1.40;;;1.17;;
32505;SDS011;18955;51.224;8.482;2023-05-14T14:31:37;2.47;;;1.92;;
32505;SDS011;18955;51.224;8.482;2023-05-14T14:34:03;2.35;;;1.73;;
32505;SDS011;18955;51.224;8.482;2023-05-14T14:36:30;4.68;;;2.17;;
32505;SDS011;18955;51.224;8.482;2023-05-14T14:38:56;3.47;;;2.00;;
32505;SDS011;18955;51.224;8.482;2023-05-14T14:41:22;2.33;;;2.13;;
32505;SDS011;18955;51.224;8.482;2023-05-14T14:43:48;3.67;;;2.10;;
32505;SDS011;18955;51.224;8.482;2023-05-14T14:46:15;1.73;;;1.60;;
32505;SDS011;18955;51.224;8.482;2023-05-14T14:48:41;3.10;;;1.80;;
32505;SDS011;18955;51.224;8.482;2023-05-14T14:51:08;4.03;;;2.20;;
32505;SDS011;18955;51.224;8.482;2023-05-14T14:53:35;3.53;;;2.03;;
32505;SDS011;18955;51.224;8.482;2023-05-14T14:56:01;1.58;;;1.48;;
32505;SDS011;18955;51.224;8.482;2023-05-14T14:58:28;4.03;;;1.92;;
32505;SDS011;18955;51.224;8.482;2023-05-14T15:00:55;2.22;;;2.03;;
32505;SDS011;18955;51.224;8.482;2023-05-14T15:03:23;2.83;;;1.92;;
32505;SDS011;18955;51.224;8.482;2023-05-14T15:05:49;1.60;;;1.48;;
32505;SDS011;18955;51.224;8.482;2023-05-14T15:08:18;3.17;;;1.90;;
32505;SDS011;18955;51.224;8.482;2023-05-14T15:10:47;2.25;;;1.95;;
32505;SDS011;18955;51.224;8.482;2023-05-14T15:13:13;2.42;;;1.38;;
32505;SDS011;18955;51.224;8.482;2023-05-14T15:15:39;2.95;;;1.85;;
32505;SDS011;18955;51.224;8.482;2023-05-14T15:18:05;2.30;;;2.10;;
32505;SDS011;18955;51.224;8.482;2023-05-14T15:20:32;3.17;;;1.67;;
32505;SDS011;18955;51.224;8.482;2023-05-14T15:22:58;2.33;;;2.10;;
32505;SDS011;18955;51.224;8.482;2023-05-14T15:25:24;3.92;;;1.90;;
32505;SDS011;18955;51.224;8.482;2023-05-14T15:30:17;4.50;;;2.10;;
32505;SDS011;18955;51.224;8.482;2023-05-14T15:32:43;2.28;;;2.08;;